createdAt,value
2018-11-02T00:01:27.250Z,5.90
2018-11-02T00:03:55.916Z,6.00
2018-11-02T00:06:24.334Z,6.20
2018-11-02T00:08:52.349Z,6.40
2018-11-02T00:11:20.913Z,6.60
2018-11-02T00:13:50.295Z,6.80
2018-11-02T00:16:18.582Z,6.90
2018-11-02T00:18:46.762Z,7.10
2018-11-02T00:21:14.937Z,7.20
2018-11-02T00:23:43.622Z,7.30
2018-11-02T00:26:11.877Z,7.40
2018-11-02T00:28:40.047Z,7.50
2018-11-02T00:31:08.298Z,7.50
2018-11-02T00:33:36.457Z,7.50
2018-11-02T00:36:04.854Z,7.50
2018-11-02T00:38:33.814Z,7.50
2018-11-02T00:41:01.996Z,7.50
2018-11-02T00:43:30.188Z,7.50
2018-11-02T00:45:59.268Z,7.50
2018-11-02T00:48:27.469Z,7.50
2018-11-02T00:50:55.704Z,7.50
2018-11-02T00:53:23.918Z,7.50
2018-11-02T00:55:52.138Z,7.50
2018-11-02T00:58:20.325Z,7.50
2018-11-02T01:00:48.613Z,7.50
2018-11-02T01:03:16.886Z,7.50
2018-11-02T01:05:45.737Z,7.50
2018-11-02T01:08:15.341Z,7.50
2018-11-02T01:10:43.546Z,7.40
2018-11-02T01:13:12.151Z,7.40
2018-11-02T01:15:40.386Z,7.30
2018-11-02T01:18:09.330Z,7.30
2018-11-02T01:20:37.522Z,7.30
2018-11-02T01:23:06.053Z,7.30
2018-11-02T01:25:34.252Z,7.30
2018-11-02T01:28:02.442Z,7.30
2018-11-02T01:30:30.654Z,7.40
2018-11-02T01:32:59.072Z,7.40
2018-11-02T01:35:27.818Z,7.40
2018-11-02T01:37:56.019Z,7.30
2018-11-02T01:40:24.205Z,7.30
2018-11-02T01:42:52.970Z,7.30
2018-11-02T01:45:21.223Z,7.30
2018-11-02T01:47:49.548Z,7.20
2018-11-02T01:50:18.206Z,7.20
2018-11-02T01:52:46.453Z,7.10
2018-11-02T01:55:14.678Z,7.00
2018-11-02T01:57:42.878Z,7.00
2018-11-02T02:00:11.342Z,7.00
2018-11-02T02:02:40.706Z,7.10
2018-11-02T02:05:08.879Z,7.20
2018-11-02T02:07:37.110Z,7.30
2018-11-02T02:10:05.751Z,7.40
2018-11-02T02:12:33.982Z,7.40
2018-11-02T02:15:02.146Z,7.50
2018-11-02T02:17:30.390Z,7.70
2018-11-02T02:19:58.596Z,7.80
2018-11-02T02:22:26.918Z,7.80
2018-11-02T02:24:55.960Z,7.80
2018-11-02T02:27:24.146Z,7.70
2018-11-02T02:29:52.338Z,7.50
2018-11-02T02:32:20.566Z,7.30
2018-11-02T02:34:48.713Z,7.10
2018-11-02T02:37:16.906Z,6.80
2018-11-02T02:39:45.258Z,6.70
2018-11-02T02:42:13.471Z,6.60
2018-11-02T02:44:42.326Z,6.40
2018-11-02T02:47:10.549Z,6.20
2018-11-02T02:49:42.654Z,6.10
2018-11-02T02:52:12.267Z,6.00
2018-11-02T02:54:40.469Z,5.90
2018-11-02T02:57:08.642Z,5.90
2018-11-02T02:59:37.006Z,5.90
2018-11-02T03:02:06.050Z,5.80
2018-11-02T03:04:34.270Z,5.80
2018-11-02T03:07:02.494Z,5.70
2018-11-02T03:09:30.725Z,5.50
2018-11-02T03:11:59.031Z,5.40
2018-11-02T03:14:27.811Z,5.50
2018-11-02T03:16:56.048Z,5.60
2018-11-02T03:19:24.226Z,5.60
2018-11-02T03:21:52.487Z,5.60
2018-11-02T03:24:20.678Z,5.50
2018-11-02T03:26:48.926Z,5.40
2018-11-02T03:29:17.140Z,5.40
2018-11-02T03:31:45.359Z,5.30
2018-11-02T03:34:13.607Z,5.20
2018-11-02T03:36:41.774Z,5.20
2018-11-02T03:39:11.422Z,5.10
2018-11-02T03:41:39.861Z,4.90
2018-11-02T03:44:09.459Z,4.80
2018-11-02T03:46:37.886Z,4.80
2018-11-02T03:49:06.987Z,4.70
2018-11-02T03:51:35.330Z,4.60
2018-11-02T03:54:03.537Z,4.60
2018-11-02T03:56:31.843Z,4.60
2018-11-02T03:59:00.015Z,4.70
2018-11-02T04:01:29.140Z,4.70
2018-11-02T04:03:57.292Z,4.70
2018-11-02T04:06:25.638Z,4.70
2018-11-02T04:08:55.391Z,4.70
2018-11-02T04:11:23.994Z,4.80
2018-11-02T04:13:52.215Z,4.90
2018-11-02T04:16:20.486Z,5.00
2018-11-02T04:18:48.674Z,4.90
2018-11-02T04:21:16.880Z,5.00
2018-11-02T04:23:45.157Z,5.00
2018-11-02T04:26:13.343Z,4.90
2018-11-02T04:28:41.541Z,4.90
2018-11-02T04:31:09.768Z,4.80
2018-11-02T04:33:39.823Z,4.60
2018-11-02T04:36:08.007Z,4.50
2018-11-02T04:38:36.437Z,4.50
2018-11-02T04:41:05.171Z,4.50
2018-11-02T04:43:40.311Z,4.50
2018-11-02T04:46:08.547Z,4.50
2018-11-02T04:48:37.254Z,4.30
2018-11-02T04:51:05.673Z,4.30
2018-11-02T04:53:34.683Z,4.30
2018-11-02T04:56:02.862Z,4.40
2018-11-02T04:58:31.211Z,4.40
2018-11-02T05:00:59.576Z,4.40
2018-11-02T05:03:29.534Z,4.30
2018-11-02T05:05:58.470Z,4.20
2018-11-02T05:08:26.914Z,4.10
2018-11-02T05:10:55.383Z,4.10
2018-11-02T05:13:23.599Z,4.10
2018-11-02T05:15:51.818Z,4.10
2018-11-02T05:18:20.111Z,4.10
2018-11-02T05:20:48.296Z,4.10
2018-11-02T05:23:16.531Z,4.00
2018-11-02T05:25:44.990Z,3.90
2018-11-02T05:28:13.166Z,3.90
2018-11-02T05:30:42.894Z,3.90
2018-11-02T05:33:11.848Z,3.90
2018-11-02T05:35:40.051Z,3.90
2018-11-02T05:38:08.224Z,3.80
2018-11-02T05:40:36.462Z,3.80
2018-11-02T05:43:04.682Z,3.70
2018-11-02T05:45:32.915Z,3.80
2018-11-02T05:48:01.870Z,3.90
2018-11-02T05:50:30.034Z,4.00
2018-11-02T05:52:59.156Z,4.00
2018-11-02T05:55:27.439Z,4.00
2018-11-02T05:57:55.766Z,3.90
2018-11-02T06:00:24.069Z,3.90
2018-11-02T06:02:52.315Z,3.80
2018-11-02T06:05:20.531Z,3.70
2018-11-02T06:07:49.562Z,3.60
2018-11-02T06:10:19.770Z,3.50
2018-11-02T06:12:49.906Z,3.30
2018-11-02T06:15:19.975Z,3.20
2018-11-02T06:17:48.162Z,3.10
2018-11-02T06:20:16.379Z,3.00
2018-11-02T06:22:44.574Z,2.90
2018-11-02T06:25:12.771Z,2.90
2018-11-02T06:27:40.969Z,2.90
2018-11-02T06:30:09.858Z,2.80
2018-11-02T06:32:38.174Z,2.80
2018-11-02T06:35:07.431Z,2.70
2018-11-02T06:37:35.850Z,2.70
2018-11-02T06:40:04.138Z,2.70
2018-11-02T06:42:33.193Z,2.70
2018-11-02T06:45:01.529Z,2.60
2018-11-02T06:47:29.623Z,2.70
2018-11-02T06:49:57.810Z,2.90
2018-11-02T06:52:26.014Z,3.20
2018-11-02T06:54:56.119Z,3.60
2018-11-02T06:57:24.354Z,4.10
2018-11-02T06:59:53.539Z,4.40
2018-11-02T07:02:21.486Z,4.30
2018-11-02T07:04:53.991Z,4.40
2018-11-02T07:07:22.261Z,4.60
2018-11-02T07:09:50.352Z,4.70
2018-11-02T07:12:18.536Z,4.70
2018-11-02T07:14:47.385Z,4.80
2018-11-02T07:17:15.622Z,4.80
2018-11-02T07:19:43.910Z,4.90
2018-11-02T07:22:12.065Z,5.10
2018-11-02T07:24:41.014Z,5.30
2018-11-02T07:27:09.195Z,5.60
2018-11-02T07:29:37.418Z,5.90
2018-11-02T07:32:05.634Z,6.10
2018-11-02T07:34:34.083Z,6.30
2018-11-02T07:37:02.055Z,6.30
2018-11-02T07:39:32.426Z,6.40
2018-11-02T07:42:00.937Z,6.60
2018-11-02T07:44:29.287Z,6.70
2018-11-02T07:46:58.800Z,6.70
2018-11-02T07:49:27.441Z,6.90
2018-11-02T07:51:55.650Z,7.00
2018-11-02T07:54:24.102Z,7.10
2018-11-02T07:56:52.310Z,7.20
2018-11-02T07:59:20.665Z,7.20
2018-11-02T08:01:49.085Z,7.20
2018-11-02T08:04:18.060Z,7.30
2018-11-02T08:06:46.355Z,7.50
2018-11-02T08:09:15.294Z,7.60
2018-11-02T08:11:44.065Z,7.80
2018-11-02T08:14:12.238Z,8.00
2018-11-02T08:16:40.649Z,8.10
2018-11-02T08:19:08.968Z,8.40
2018-11-02T08:21:37.034Z,8.60
2018-11-02T08:24:05.463Z,8.80
2018-11-02T08:26:33.647Z,9.10
2018-11-02T08:29:01.896Z,9.10
2018-11-02T08:31:30.298Z,9.20
2018-11-02T08:33:58.486Z,9.40
2018-11-02T08:36:26.670Z,9.40
2018-11-02T08:38:54.870Z,9.40
2018-11-02T08:41:23.170Z,9.50
2018-11-02T08:43:51.381Z,9.60
2018-11-02T08:46:19.598Z,9.80
2018-11-02T08:48:47.798Z,10.10
2018-11-02T08:51:16.018Z,10.30
2018-11-02T08:53:44.178Z,10.50
2018-11-02T08:56:12.397Z,10.70
2018-11-02T08:58:40.854Z,11.00
2018-11-02T09:01:08.798Z,11.30
2018-11-02T09:03:37.329Z,11.60
2018-11-02T09:06:05.716Z,11.70
2018-11-02T09:08:33.898Z,11.70
2018-11-02T09:11:02.123Z,11.80
2018-11-02T09:13:30.337Z,11.70
2018-11-02T09:15:58.540Z,11.90
2018-11-02T09:18:26.711Z,12.20
2018-11-02T09:20:55.265Z,12.50
2018-11-02T09:23:23.594Z,12.70
2018-11-02T09:25:51.831Z,13.00
2018-11-02T09:28:20.047Z,13.20
2018-11-02T09:30:48.964Z,13.50
2018-11-02T09:33:17.619Z,13.40
2018-11-02T09:35:46.025Z,13.20
2018-11-02T09:38:14.254Z,13.50
2018-11-02T09:40:42.475Z,13.60
2018-11-02T09:43:10.638Z,13.80
2018-11-02T09:45:38.794Z,13.90
2018-11-02T09:48:06.950Z,14.00
2018-11-02T09:50:35.162Z,14.60
2018-11-02T09:53:03.388Z,15.20
2018-11-02T09:55:31.597Z,15.40
2018-11-02T09:58:00.146Z,14.90
2018-11-02T10:00:28.356Z,15.30
2018-11-02T10:02:56.560Z,15.40
2018-11-02T10:05:24.718Z,15.60
2018-11-02T10:07:52.877Z,15.90
2018-11-02T10:10:21.055Z,16.50
2018-11-02T10:12:49.307Z,16.90
2018-11-02T10:15:17.519Z,16.50
2018-11-02T10:17:46.006Z,16.70
2018-11-02T10:20:14.461Z,17.00
2018-11-02T10:22:44.510Z,17.60
2018-11-02T10:25:12.838Z,17.90
2018-11-02T10:27:42.571Z,18.70
2018-11-02T10:30:12.410Z,19.10
2018-11-02T10:32:41.638Z,19.10
2018-11-02T10:35:09.927Z,18.20
2018-11-02T10:37:38.588Z,18.40
2018-11-02T10:40:13.702Z,19.10
2018-11-02T10:42:42.530Z,19.70
2018-11-02T10:45:11.427Z,20.50
2018-11-02T10:47:39.678Z,20.70
2018-11-02T10:50:07.922Z,20.70
2018-11-02T10:52:36.111Z,20.30
2018-11-02T10:55:04.374Z,20.90
2018-11-02T10:57:32.588Z,20.90
2018-11-02T11:00:01.205Z,21.20
2018-11-02T11:02:35.835Z,21.00
2018-11-02T11:05:04.384Z,20.30
2018-11-02T11:07:32.647Z,20.00
2018-11-02T11:10:00.994Z,20.20
2018-11-02T11:12:29.456Z,20.70
2018-11-02T11:14:57.395Z,21.20
2018-11-02T11:17:25.581Z,21.90
2018-11-02T11:19:53.798Z,22.40
2018-11-02T11:22:21.966Z,22.80
2018-11-02T11:24:50.214Z,23.00
2018-11-02T11:27:18.425Z,22.90
2018-11-02T11:29:46.762Z,23.00
2018-11-02T11:32:15.735Z,23.20
2018-11-02T11:34:44.043Z,23.70
2018-11-02T11:37:12.226Z,24.00
2018-11-02T11:39:40.467Z,24.10
2018-11-02T11:42:08.629Z,23.70
2018-11-02T11:44:37.786Z,23.20
2018-11-02T11:47:06.066Z,23.10
2018-11-02T11:49:34.242Z,22.70
2018-11-02T11:52:02.723Z,23.00
2018-11-02T11:54:30.889Z,23.50
2018-11-02T11:56:59.078Z,23.20
2018-11-02T11:59:27.234Z,22.90
2018-11-02T12:01:55.643Z,23.20
2018-11-02T12:04:23.893Z,23.40
2018-11-02T12:06:52.067Z,22.80
2018-11-02T12:09:20.344Z,22.20
2018-11-02T12:11:48.586Z,22.00
2018-11-02T12:14:17.422Z,21.20
2018-11-02T12:16:45.579Z,21.00
2018-11-02T12:19:14.081Z,21.50
2018-11-02T12:21:42.894Z,22.20
2018-11-02T12:24:11.466Z,22.70
2018-11-02T12:26:39.662Z,22.60
2018-11-02T12:29:07.942Z,23.00
2018-11-02T12:31:36.166Z,23.00
2018-11-02T12:34:04.855Z,23.30
2018-11-02T12:36:33.041Z,23.70
2018-11-02T12:39:01.349Z,23.60
2018-11-02T12:41:29.543Z,23.90
2018-11-02T12:43:57.872Z,24.20
2018-11-02T12:46:25.958Z,24.30
2018-11-02T12:48:54.413Z,23.50
2018-11-02T12:51:23.338Z,22.60
2018-11-02T12:53:51.538Z,21.60
2018-11-02T12:56:19.766Z,20.90
2018-11-02T12:58:47.979Z,20.10
2018-11-02T13:01:16.286Z,19.30
2018-11-02T13:03:44.531Z,18.50
2018-11-02T13:06:12.693Z,17.70
2018-11-02T13:08:40.890Z,16.90
2018-11-02T13:11:09.090Z,16.40
2018-11-02T13:13:37.320Z,15.70
2018-11-02T13:16:05.626Z,15.50
2018-11-02T13:18:33.769Z,15.40
2018-11-02T13:21:01.939Z,15.50
2018-11-02T13:23:30.162Z,15.30
2018-11-02T13:25:58.481Z,15.00
2018-11-02T13:28:26.674Z,14.80
2018-11-02T13:30:54.948Z,14.70
2018-11-02T13:33:22.992Z,14.60
2018-11-02T13:35:51.206Z,14.50
2018-11-02T13:38:19.428Z,14.40
2018-11-02T13:40:47.706Z,14.30
2018-11-02T13:43:16.045Z,14.60
2018-11-02T13:45:44.114Z,14.90
2018-11-02T13:48:12.325Z,15.10
2018-11-02T13:50:40.495Z,15.10
2018-11-02T13:53:09.093Z,15.00
2018-11-02T13:55:37.341Z,14.90
2018-11-02T13:58:05.538Z,14.80
2018-11-02T14:00:33.770Z,14.90
2018-11-02T14:03:01.974Z,15.00
2018-11-02T14:05:30.335Z,15.20
2018-11-02T14:07:58.545Z,15.10
2018-11-02T14:10:26.761Z,14.90
2018-11-02T14:12:54.966Z,14.70
2018-11-02T14:15:23.495Z,14.40
2018-11-02T14:17:51.690Z,14.00
2018-11-02T14:20:19.884Z,13.80
2018-11-02T14:22:48.066Z,13.70
2018-11-02T14:25:17.139Z,13.70
2018-11-02T14:27:45.672Z,13.90
2018-11-02T14:30:16.029Z,14.20
2018-11-02T14:32:44.824Z,14.40
2018-11-02T14:35:13.054Z,14.50
2018-11-02T14:37:41.336Z,14.60
2018-11-02T14:40:10.437Z,14.60
2018-11-02T14:42:39.430Z,14.60
2018-11-02T14:45:09.398Z,14.90
2018-11-02T14:47:37.730Z,15.20
2018-11-02T14:50:07.133Z,15.60
2018-11-02T14:52:35.330Z,16.00
2018-11-02T14:55:03.591Z,16.50
2018-11-02T14:57:31.872Z,17.10
2018-11-02T15:00:00.256Z,17.60
2018-11-02T15:02:28.461Z,17.40
2018-11-02T15:04:56.719Z,16.70
2018-11-02T15:07:24.893Z,15.90
2018-11-02T15:09:54.896Z,15.10
2018-11-02T15:12:23.086Z,14.50
2018-11-02T15:14:51.271Z,14.00
2018-11-02T15:17:19.432Z,13.60
2018-11-02T15:19:47.698Z,13.30
2018-11-02T15:22:15.895Z,13.00
2018-11-02T15:24:44.174Z,12.80
2018-11-02T15:27:12.791Z,12.60
2018-11-02T15:29:41.011Z,12.40
2018-11-02T15:32:09.203Z,12.30
2018-11-02T15:34:37.459Z,12.30
2018-11-02T15:37:06.090Z,12.20
2018-11-02T15:39:34.290Z,12.10
2018-11-02T15:42:02.531Z,12.00
2018-11-02T15:44:37.683Z,11.90
2018-11-02T15:47:05.814Z,12.00
2018-11-02T15:49:34.035Z,11.90
2018-11-02T15:52:02.266Z,11.80
2018-11-02T15:54:30.450Z,11.80
2018-11-02T15:56:58.694Z,11.60
2018-11-02T15:59:26.910Z,11.50
2018-11-02T16:01:55.074Z,11.30
2018-11-02T16:04:23.298Z,11.30
2018-11-02T16:06:51.722Z,11.20
2018-11-02T16:09:19.930Z,11.10
2018-11-02T16:11:48.158Z,11.10
2018-11-02T16:14:16.547Z,11.00
2018-11-02T16:16:44.703Z,11.00
2018-11-02T16:19:12.984Z,11.00
2018-11-02T16:21:41.163Z,11.00
2018-11-02T16:24:11.644Z,10.90
2018-11-02T16:26:40.986Z,10.80
2018-11-02T16:29:09.165Z,10.70
2018-11-02T16:31:37.346Z,10.70
2018-11-02T16:34:05.659Z,10.70
2018-11-02T16:36:33.761Z,10.80
2018-11-02T16:39:01.935Z,10.80
2018-11-02T16:41:30.119Z,10.80
2018-11-02T16:43:58.404Z,10.90
2018-11-02T16:46:28.394Z,11.00
2018-11-02T16:48:56.620Z,11.00
2018-11-02T16:51:24.834Z,11.00
2018-11-02T16:53:56.556Z,11.00
2018-11-02T16:56:25.075Z,10.90
2018-11-02T16:58:53.358Z,10.90
2018-11-02T17:01:23.674Z,10.80
2018-11-02T17:03:51.844Z,10.70
2018-11-02T17:06:20.011Z,10.70
2018-11-02T17:08:48.152Z,10.60
2018-11-02T17:11:16.565Z,10.50
2018-11-02T17:13:44.696Z,10.40
2018-11-02T17:16:12.911Z,10.30
2018-11-02T17:18:44.779Z,10.20
2018-11-02T17:21:12.960Z,10.10
2018-11-02T17:23:41.478Z,10.10
2018-11-02T17:26:09.683Z,10.00
2018-11-02T17:28:37.867Z,10.00
2018-11-02T17:31:06.263Z,9.90
2018-11-02T17:33:34.904Z,9.90
2018-11-02T17:36:03.083Z,9.80
2018-11-02T17:38:31.399Z,9.80
2018-11-02T17:40:59.600Z,9.70
2018-11-02T17:43:27.762Z,9.60
2018-11-02T17:45:56.619Z,9.60
2018-11-02T17:48:24.846Z,9.60
2018-11-02T17:50:53.090Z,9.50
2018-11-02T17:53:21.908Z,9.50
2018-11-02T17:55:50.986Z,9.40
2018-11-02T17:58:19.220Z,9.40
2018-11-02T18:00:48.572Z,9.40
2018-11-02T18:03:16.876Z,9.30
2018-11-02T18:05:45.045Z,9.30
2018-11-02T18:08:13.238Z,9.20
2018-11-02T18:10:41.637Z,9.20
2018-11-02T18:13:09.838Z,9.10
2018-11-02T18:15:39.469Z,9.10
2018-11-02T18:18:07.670Z,9.00
2018-11-02T18:20:36.516Z,9.00
2018-11-02T18:23:05.064Z,8.90
2018-11-02T18:25:33.799Z,8.80
2018-11-02T18:28:02.142Z,8.70
2018-11-02T18:30:30.370Z,8.60
2018-11-02T18:32:58.538Z,8.50
2018-11-02T18:35:28.621Z,8.40
2018-11-02T18:37:56.984Z,8.30
2018-11-02T18:40:25.186Z,8.10
2018-11-02T18:42:53.434Z,8.00
2018-11-02T18:45:21.929Z,7.90
2018-11-02T18:47:50.903Z,7.80
2018-11-02T18:50:20.382Z,7.70
2018-11-02T18:52:49.161Z,7.70
2018-11-02T18:55:17.853Z,7.60
2018-11-02T18:57:46.649Z,7.60
2018-11-02T19:00:14.989Z,7.60
2018-11-02T19:02:43.202Z,7.80
2018-11-02T19:05:14.041Z,7.90
2018-11-02T19:07:42.800Z,7.90
2018-11-02T19:10:12.045Z,8.00
2018-11-02T19:12:40.674Z,8.10
2018-11-02T19:15:11.662Z,8.30
2018-11-02T19:17:40.354Z,8.30
2018-11-02T19:20:09.254Z,8.40
2018-11-02T19:22:38.162Z,8.50
2018-11-02T19:25:07.607Z,8.50
2018-11-02T19:27:36.120Z,8.50
2018-11-02T19:30:05.022Z,8.50
2018-11-02T19:32:33.261Z,8.50
2018-11-02T19:35:01.958Z,8.60
2018-11-02T19:37:29.964Z,8.60
2018-11-02T19:39:58.627Z,8.50
2018-11-02T19:42:26.995Z,8.50
2018-11-02T19:44:55.419Z,8.50
2018-11-02T19:47:28.087Z,8.50
2018-11-02T19:49:56.362Z,8.60
2018-11-02T19:52:24.680Z,8.60
2018-11-02T19:54:53.115Z,8.60
2018-11-02T19:57:27.795Z,8.60
2018-11-02T19:59:55.878Z,8.70
2018-11-02T20:02:24.086Z,8.60
2018-11-02T20:04:52.276Z,8.70
2018-11-02T20:07:20.602Z,8.70
2018-11-02T20:09:48.950Z,8.70
2018-11-02T20:12:17.180Z,8.70
2018-11-02T20:14:45.356Z,8.70
2018-11-02T20:17:13.578Z,8.70
2018-11-02T20:19:41.779Z,8.70
2018-11-02T20:22:09.998Z,8.70
2018-11-02T20:24:38.203Z,8.70
2018-11-02T20:27:06.387Z,8.80
2018-11-02T20:29:34.542Z,8.70
2018-11-02T20:32:04.654Z,8.70
2018-11-02T20:34:32.838Z,8.60
2018-11-02T20:37:01.207Z,8.60
2018-11-02T20:39:29.620Z,8.60
2018-11-02T20:41:57.850Z,8.50
2018-11-02T20:44:26.369Z,8.40
2018-11-02T20:46:54.526Z,8.30
2018-11-02T20:49:22.921Z,8.20
2018-11-02T20:51:51.135Z,8.00
2018-11-02T20:54:19.321Z,7.90
2018-11-02T20:56:47.678Z,7.70
2018-11-02T20:59:16.006Z,7.50
2018-11-02T21:01:45.614Z,7.30
2018-11-02T21:04:14.184Z,7.30
2018-11-02T21:06:42.404Z,7.30
2018-11-02T21:09:12.123Z,7.20
2018-11-02T21:11:40.149Z,7.10
2018-11-02T21:14:08.961Z,7.00
2018-11-02T21:16:37.067Z,6.90
2018-11-02T21:19:05.383Z,6.70
2018-11-02T21:21:33.579Z,6.60
2018-11-02T21:24:01.898Z,6.50
2018-11-02T21:26:30.304Z,6.40
2018-11-02T21:28:59.598Z,6.30
2018-11-02T21:31:27.714Z,6.10
2018-11-02T21:33:56.072Z,5.90
2018-11-02T21:36:24.070Z,5.90
2018-11-02T21:38:52.359Z,5.90
2018-11-02T21:41:20.458Z,5.90
2018-11-02T21:43:49.782Z,6.00
2018-11-02T21:46:18.259Z,6.10
2018-11-02T21:48:46.458Z,6.20
2018-11-02T21:51:14.686Z,6.20
2018-11-02T21:53:43.534Z,6.20
2018-11-02T21:56:12.018Z,6.30
2018-11-02T21:58:40.268Z,6.30
2018-11-02T22:01:08.402Z,6.40
2018-11-02T22:03:36.637Z,6.60
2018-11-02T22:06:04.797Z,6.70
2018-11-02T22:08:32.982Z,6.80
2018-11-02T22:11:01.326Z,6.90
2018-11-02T22:13:29.515Z,7.00
2018-11-02T22:15:57.690Z,7.10
2018-11-02T22:18:25.898Z,7.10
2018-11-02T22:20:54.050Z,7.10
2018-11-02T22:23:24.127Z,7.10
2018-11-02T22:25:52.358Z,7.10
2018-11-02T22:28:20.816Z,7.10
2018-11-02T22:30:49.140Z,7.10
2018-11-02T22:33:17.382Z,7.10
2018-11-02T22:35:46.315Z,7.10
2018-11-02T22:38:15.335Z,7.10
2018-11-02T22:40:44.316Z,7.10
2018-11-02T22:43:12.512Z,6.90
2018-11-02T22:45:40.731Z,6.90
2018-11-02T22:48:14.463Z,6.80
2018-11-02T22:50:43.316Z,6.70
2018-11-02T22:53:11.454Z,6.50
2018-11-02T22:55:39.658Z,6.30
2018-11-02T22:58:07.926Z,6.20
2018-11-02T23:00:40.386Z,6.20
2018-11-02T23:03:08.610Z,6.20
2018-11-02T23:05:36.835Z,6.20
2018-11-02T23:08:05.824Z,6.20
2018-11-02T23:10:34.066Z,6.30
2018-11-02T23:13:02.355Z,6.40
2018-11-02T23:15:30.494Z,6.40
2018-11-02T23:17:58.683Z,6.50
2018-11-02T23:20:26.865Z,6.50
2018-11-02T23:22:55.374Z,6.60
2018-11-02T23:25:23.650Z,6.70
2018-11-02T23:27:51.858Z,6.70
2018-11-02T23:30:20.044Z,6.70
2018-11-02T23:32:48.254Z,6.70
2018-11-02T23:35:17.050Z,6.60
2018-11-02T23:37:45.329Z,6.60
2018-11-02T23:40:13.768Z,6.60
2018-11-02T23:42:42.028Z,6.50
2018-11-02T23:45:10.982Z,6.50
2018-11-02T23:47:39.535Z,6.40
2018-11-02T23:50:09.082Z,6.40
2018-11-02T23:52:37.347Z,6.40
2018-11-02T23:55:05.861Z,6.40
2018-11-02T23:57:35.086Z,6.40
